sensor_id;sensor_type;location;lat;lon;timestamp;temperature;humidity
19483;DHT22;9882;51.166;6.992;2023-03-04T00:00:10;4.60;99.90
19483;DHT22;9882;51.166;6.992;2023-03-04T00:02:40;4.70;99.90
19483;DHT22;9882;51.166;6.992;2023-03-04T00:05:18;4.70;99.90
19483;DHT22;9882;51.166;6.992;2023-03-04T00:07:47;4.60;99.90
19483;DHT22;9882;51.166;6.992;2023-03-04T00:10:16;4.40;99.90
19483;DHT22;9882;51.166;6.992;2023-03-04T00:12:48;4.50;99.90
19483;DHT22;9882;51.166;6.992;2023-03-04T00:15:17;4.50;99.90
19483;DHT22;9882;51.166;6.992;2023-03-04T00:17:46;4.60;99.90
19483;DHT22;9882;51.166;6.992;2023-03-04T00:20:15;4.50;99.90
19483;DHT22;9882;51.166;6.992;2023-03-04T00:22:45;4.50;99.90
19483;DHT22;9882;51.166;6.992;2023-03-04T00:25:14;4.60;99.90
19483;DHT22;9882;51.166;6.992;2023-03-04T00:27:43;4.60;99.90
19483;DHT22;9882;51.166;6.992;2023-03-04T00:30:13;4.70;99.90
19483;DHT22;9882;51.166;6.992;2023-03-04T00:32:43;4.70;99.90
19483;DHT22;9882;51.166;6.992;2023-03-04T00:35:12;4.70;99.90
19483;DHT22;9882;51.166;6.992;2023-03-04T00:37:41;4.70;99.90
19483;DHT22;9882;51.166;6.992;2023-03-04T00:40:12;4.80;99.90
19483;DHT22;9882;51.166;6.992;2023-03-04T00:42:41;4.50;99.90
19483;DHT22;9882;51.166;6.992;2023-03-04T00:45:10;4.60;99.90
19483;DHT22;9882;51.166;6.992;2023-03-04T00:47:39;4.60;99.90
19483;DHT22;9882;51.166;6.992;2023-03-04T00:50:09;4.60;99.90
19483;DHT22;9882;51.166;6.992;2023-03-04T00:52:39;4.60;99.90
19483;DHT22;9882;51.166;6.992;2023-03-04T00:55:08;4.50;99.90
19483;DHT22;9882;51.166;6.992;2023-03-04T00:57:39;4.40;99.90
19483;DHT22;9882;51.166;6.992;2023-03-04T01:00:09;4.50;99.90
19483;DHT22;9882;51.166;6.992;2023-03-04T01:02:38;4.60;99.90
19483;DHT22;9882;51.166;6.992;2023-03-04T01:05:08;4.60;99.90
19483;DHT22;9882;51.166;6.992;2023-03-04T01:07:37;4.60;99.90
19483;DHT22;9882;51.166;6.992;2023-03-04T01:10:10;4.60;99.90
19483;DHT22;9882;51.166;6.992;2023-03-04T01:12:41;4.50;99.90
19483;DHT22;9882;51.166;6.992;2023-03-04T01:15:11;4.20;99.90
19483;DHT22;9882;51.166;6.992;2023-03-04T01:17:40;3.90;99.90
19483;DHT22;9882;51.166;6.992;2023-03-04T01:20:10;4.10;99.90
19483;DHT22;9882;51.166;6.992;2023-03-04T01:22:39;4.20;99.90
19483;DHT22;9882;51.166;6.992;2023-03-04T01:25:09;4.30;99.90
19483;DHT22;9882;51.166;6.992;2023-03-04T01:27:40;4.40;99.90
19483;DHT22;9882;51.166;6.992;2023-03-04T01:30:10;4.50;99.90
19483;DHT22;9882;51.166;6.992;2023-03-04T01:32:39;4.50;99.90
19483;DHT22;9882;51.166;6.992;2023-03-04T01:35:09;4.50;99.90
19483;DHT22;9882;51.166;6.992;2023-03-04T01:37:38;4.60;99.90
19483;DHT22;9882;51.166;6.992;2023-03-04T01:40:08;4.60;99.90
19483;DHT22;9882;51.166;6.992;2023-03-04T01:42:38;4.60;99.90
19483;DHT22;9882;51.166;6.992;2023-03-04T01:45:12;4.60;99.90
19483;DHT22;9882;51.166;6.992;2023-03-04T01:47:43;4.60;99.90
19483;DHT22;9882;51.166;6.992;2023-03-04T01:50:20;4.60;99.90
19483;DHT22;9882;51.166;6.992;2023-03-04T01:52:50;4.60;99.90
19483;DHT22;9882;51.166;6.992;2023-03-04T01:55:20;4.60;99.90
19483;DHT22;9882;51.166;6.992;2023-03-04T01:57:50;4.50;99.90
19483;DHT22;9882;51.166;6.992;2023-03-04T02:00:27;4.50;99.90
19483;DHT22;9882;51.166;6.992;2023-03-04T02:02:59;4.60;99.90
19483;DHT22;9882;51.166;6.992;2023-03-04T02:05:29;4.60;99.90
19483;DHT22;9882;51.166;6.992;2023-03-04T02:07:59;4.60;99.90
19483;DHT22;9882;51.166;6.992;2023-03-04T02:10:29;4.60;99.90
19483;DHT22;9882;51.166;6.992;2023-03-04T02:12:59;4.60;99.90
19483;DHT22;9882;51.166;6.992;2023-03-04T02:15:30;4.60;99.90
19483;DHT22;9882;51.166;6.992;2023-03-04T02:18:00;4.60;99.90
19483;DHT22;9882;51.166;6.992;2023-03-04T02:20:42;4.10;99.90
19483;DHT22;9882;51.166;6.992;2023-03-04T02:23:17;4.00;99.90
19483;DHT22;9882;51.166;6.992;2023-03-04T02:25:49;4.10;99.90
19483;DHT22;9882;51.166;6.992;2023-03-04T02:28:22;4.20;99.90
19483;DHT22;9882;51.166;6.992;2023-03-04T02:30:51;4.30;99.90
19483;DHT22;9882;51.166;6.992;2023-03-04T02:33:20;4.10;99.90
19483;DHT22;9882;51.166;6.992;2023-03-04T02:35:49;4.00;99.90
19483;DHT22;9882;51.166;6.992;2023-03-04T02:38:19;4.10;99.90
19483;DHT22;9882;51.166;6.992;2023-03-04T02:40:50;4.20;99.90
19483;DHT22;9882;51.166;6.992;2023-03-04T02:43:23;4.40;99.90
19483;DHT22;9882;51.166;6.992;2023-03-04T02:45:53;4.40;99.90
19483;DHT22;9882;51.166;6.992;2023-03-04T02:48:22;4.40;99.90
19483;DHT22;9882;51.166;6.992;2023-03-04T02:50:52;4.40;99.90
19483;DHT22;9882;51.166;6.992;2023-03-04T02:53:22;4.50;99.90
19483;DHT22;9882;51.166;6.992;2023-03-04T02:55:52;4.50;99.90
19483;DHT22;9882;51.166;6.992;2023-03-04T02:58:24;4.50;99.90
19483;DHT22;9882;51.166;6.992;2023-03-04T03:00:54;4.50;99.90
19483;DHT22;9882;51.166;6.992;2023-03-04T03:03:24;4.50;99.90
19483;DHT22;9882;51.166;6.992;2023-03-04T03:05:53;4.50;99.90
19483;DHT22;9882;51.166;6.992;2023-03-04T03:08:23;4.50;99.90
19483;DHT22;9882;51.166;6.992;2023-03-04T03:10:53;4.50;99.90
19483;DHT22;9882;51.166;6.992;2023-03-04T03:13:25;4.50;99.90
19483;DHT22;9882;51.166;6.992;2023-03-04T03:15:56;4.50;99.90
19483;DHT22;9882;51.166;6.992;2023-03-04T03:18:25;4.50;99.90
19483;DHT22;9882;51.166;6.992;2023-03-04T03:20:53;4.60;99.90
19483;DHT22;9882;51.166;6.992;2023-03-04T03:23:22;4.60;99.90
19483;DHT22;9882;51.166;6.992;2023-03-04T03:25:51;4.60;99.90
19483;DHT22;9882;51.166;6.992;2023-03-04T03:28:20;4.60;99.90
19483;DHT22;9882;51.166;6.992;2023-03-04T03:30:51;4.60;99.90
19483;DHT22;9882;51.166;6.992;2023-03-04T03:33:20;4.60;99.90
19483;DHT22;9882;51.166;6.992;2023-03-04T03:35:49;4.60;99.90
19483;DHT22;9882;51.166;6.992;2023-03-04T03:38:19;4.60;99.90
19483;DHT22;9882;51.166;6.992;2023-03-04T03:40:48;4.50;99.90
19483;DHT22;9882;51.166;6.992;2023-03-04T03:43:17;4.50;99.90
19483;DHT22;9882;51.166;6.992;2023-03-04T03:45:46;4.50;99.90
19483;DHT22;9882;51.166;6.992;2023-03-04T03:48:16;4.50;99.90
19483;DHT22;9882;51.166;6.992;2023-03-04T03:50:46;4.60;99.90
19483;DHT22;9882;51.166;6.992;2023-03-04T03:53:15;4.60;99.90
19483;DHT22;9882;51.166;6.992;2023-03-04T03:55:44;4.60;99.90
19483;DHT22;9882;51.166;6.992;2023-03-04T03:58:13;4.60;99.90
19483;DHT22;9882;51.166;6.992;2023-03-04T04:00:42;4.50;99.90
19483;DHT22;9882;51.166;6.992;2023-03-04T04:03:13;4.50;99.90
19483;DHT22;9882;51.166;6.992;2023-03-04T04:05:44;4.50;99.90
19483;DHT22;9882;51.166;6.992;2023-03-04T04:08:13;4.50;99.90
19483;DHT22;9882;51.166;6.992;2023-03-04T04:10:42;4.50;99.90
19483;DHT22;9882;51.166;6.992;2023-03-04T04:13:12;4.60;99.90
19483;DHT22;9882;51.166;6.992;2023-03-04T04:15:41;4.50;99.90
19483;DHT22;9882;51.166;6.992;2023-03-04T04:18:10;4.40;99.90
19483;DHT22;9882;51.166;6.992;2023-03-04T04:20:39;4.30;99.90
19483;DHT22;9882;51.166;6.992;2023-03-04T04:23:10;4.10;99.90
19483;DHT22;9882;51.166;6.992;2023-03-04T04:25:39;3.90;99.90
19483;DHT22;9882;51.166;6.992;2023-03-04T04:28:08;4.10;99.90
19483;DHT22;9882;51.166;6.992;2023-03-04T04:30:38;4.20;99.90
19483;DHT22;9882;51.166;6.992;2023-03-04T04:33:08;4.10;99.90
19483;DHT22;9882;51.166;6.992;2023-03-04T04:35:37;4.00;99.90
19483;DHT22;9882;51.166;6.992;2023-03-04T04:38:07;3.90;99.90
19483;DHT22;9882;51.166;6.992;2023-03-04T04:40:38;3.90;99.90
19483;DHT22;9882;51.166;6.992;2023-03-04T04:43:07;4.00;99.90
19483;DHT22;9882;51.166;6.992;2023-03-04T04:45:36;4.00;99.90
19483;DHT22;9882;51.166;6.992;2023-03-04T04:48:05;4.00;99.90
19483;DHT22;9882;51.166;6.992;2023-03-04T04:50:35;4.00;99.90
19483;DHT22;9882;51.166;6.992;2023-03-04T04:53:04;4.10;99.90
19483;DHT22;9882;51.166;6.992;2023-03-04T04:55:33;4.10;99.90
19483;DHT22;9882;51.166;6.992;2023-03-04T04:58:04;4.10;99.90
19483;DHT22;9882;51.166;6.992;2023-03-04T05:00:33;4.10;99.90
19483;DHT22;9882;51.166;6.992;2023-03-04T05:03:02;4.10;99.90
19483;DHT22;9882;51.166;6.992;2023-03-04T05:05:30;4.10;99.90
19483;DHT22;9882;51.166;6.992;2023-03-04T05:07:59;4.00;99.90
19483;DHT22;9882;51.166;6.992;2023-03-04T05:10:28;4.00;99.90
19483;DHT22;9882;51.166;6.992;2023-03-04T05:12:57;4.00;99.90
19483;DHT22;9882;51.166;6.992;2023-03-04T05:15:27;4.00;99.90
19483;DHT22;9882;51.166;6.992;2023-03-04T05:17:56;4.00;99.90
19483;DHT22;9882;51.166;6.992;2023-03-04T05:20:25;4.00;99.90
19483;DHT22;9882;51.166;6.992;2023-03-04T05:22:54;3.90;99.90
19483;DHT22;9882;51.166;6.992;2023-03-04T05:25:22;3.90;99.90
19483;DHT22;9882;51.166;6.992;2023-03-04T05:27:51;4.00;99.90
19483;DHT22;9882;51.166;6.992;2023-03-04T05:30:20;4.00;99.90
19483;DHT22;9882;51.166;6.992;2023-03-04T05:32:50;4.00;99.90
19483;DHT22;9882;51.166;6.992;2023-03-04T05:35:20;4.00;99.90
19483;DHT22;9882;51.166;6.992;2023-03-04T05:37:53;4.10;99.90
19483;DHT22;9882;51.166;6.992;2023-03-04T05:40:22;4.00;99.90
19483;DHT22;9882;51.166;6.992;2023-03-04T05:42:52;4.00;99.90
19483;DHT22;9882;51.166;6.992;2023-03-04T05:45:21;4.00;99.90
19483;DHT22;9882;51.166;6.992;2023-03-04T05:47:55;4.00;99.90
19483;DHT22;9882;51.166;6.992;2023-03-04T05:50:24;4.10;99.90
19483;DHT22;9882;51.166;6.992;2023-03-04T05:52:55;4.00;99.90
19483;DHT22;9882;51.166;6.992;2023-03-04T05:55:24;4.10;99.90
19483;DHT22;9882;51.166;6.992;2023-03-04T05:57:54;4.10;99.90
19483;DHT22;9882;51.166;6.992;2023-03-04T06:00:24;4.10;99.90
19483;DHT22;9882;51.166;6.992;2023-03-04T06:02:54;4.10;99.90
19483;DHT22;9882;51.166;6.992;2023-03-04T06:05:23;4.10;99.90
19483;DHT22;9882;51.166;6.992;2023-03-04T06:07:52;4.10;99.90
19483;DHT22;9882;51.166;6.992;2023-03-04T06:10:22;4.10;99.90
19483;DHT22;9882;51.166;6.992;2023-03-04T06:13:01;4.10;99.90
19483;DHT22;9882;51.166;6.992;2023-03-04T06:15:32;4.20;99.90
19483;DHT22;9882;51.166;6.992;2023-03-04T06:18:02;4.10;99.90
19483;DHT22;9882;51.166;6.992;2023-03-04T06:20:31;4.10;99.90
19483;DHT22;9882;51.166;6.992;2023-03-04T06:23:00;4.20;99.90
19483;DHT22;9882;51.166;6.992;2023-03-04T06:25:44;4.10;99.90
19483;DHT22;9882;51.166;6.992;2023-03-04T06:28:13;4.10;99.90
19483;DHT22;9882;51.166;6.992;2023-03-04T06:30:47;4.20;99.90
19483;DHT22;9882;51.166;6.992;2023-03-04T06:33:32;4.20;99.90
19483;DHT22;9882;51.166;6.992;2023-03-04T06:36:01;4.20;99.90
19483;DHT22;9882;51.166;6.992;2023-03-04T06:38:29;4.20;99.90
19483;DHT22;9882;51.166;6.992;2023-03-04T06:41:05;4.20;99.90
19483;DHT22;9882;51.166;6.992;2023-03-04T06:43:34;4.20;99.90
19483;DHT22;9882;51.166;6.992;2023-03-04T06:46:04;4.20;99.90
19483;DHT22;9882;51.166;6.992;2023-03-04T06:48:38;4.10;99.90
19483;DHT22;9882;51.166;6.992;2023-03-04T06:51:07;4.20;99.90
19483;DHT22;9882;51.166;6.992;2023-03-04T06:53:38;4.20;99.90
19483;DHT22;9882;51.166;6.992;2023-03-04T06:56:09;4.20;99.90
19483;DHT22;9882;51.166;6.992;2023-03-04T06:58:48;4.20;99.90
19483;DHT22;9882;51.166;6.992;2023-03-04T07:01:19;4.20;99.90
19483;DHT22;9882;51.166;6.992;2023-03-04T07:04:05;4.20;99.90
19483;DHT22;9882;51.166;6.992;2023-03-04T07:06:34;4.20;99.90
19483;DHT22;9882;51.166;6.992;2023-03-04T07:09:03;4.30;99.90
19483;DHT22;9882;51.166;6.992;2023-03-04T07:11:32;4.30;99.90
19483;DHT22;9882;51.166;6.992;2023-03-04T07:14:01;4.30;99.90
19483;DHT22;9882;51.166;6.992;2023-03-04T07:16:31;4.30;99.90
19483;DHT22;9882;51.166;6.992;2023-03-04T07:19:00;4.20;99.90
19483;DHT22;9882;51.166;6.992;2023-03-04T07:21:30;4.30;99.90
19483;DHT22;9882;51.166;6.992;2023-03-04T07:24:00;4.30;99.90
19483;DHT22;9882;51.166;6.992;2023-03-04T07:26:28;4.30;99.90
19483;DHT22;9882;51.166;6.992;2023-03-04T07:28:57;4.30;99.90
19483;DHT22;9882;51.166;6.992;2023-03-04T07:31:28;4.30;99.90
19483;DHT22;9882;51.166;6.992;2023-03-04T07:33:59;4.40;99.90
19483;DHT22;9882;51.166;6.992;2023-03-04T07:36:31;4.40;99.90
19483;DHT22;9882;51.166;6.992;2023-03-04T07:39:01;4.40;99.90
19483;DHT22;9882;51.166;6.992;2023-03-04T07:41:31;4.40;99.90
19483;DHT22;9882;51.166;6.992;2023-03-04T07:44:03;4.40;99.90
19483;DHT22;9882;51.166;6.992;2023-03-04T07:46:32;4.40;99.90
19483;DHT22;9882;51.166;6.992;2023-03-04T07:49:01;4.40;99.90
19483;DHT22;9882;51.166;6.992;2023-03-04T07:51:33;4.40;99.90
19483;DHT22;9882;51.166;6.992;2023-03-04T07:54:04;4.50;99.90
19483;DHT22;9882;51.166;6.992;2023-03-04T07:56:33;4.50;99.90
19483;DHT22;9882;51.166;6.992;2023-03-04T07:59:03;4.50;99.90
19483;DHT22;9882;51.166;6.992;2023-03-04T08:01:36;4.50;99.90
19483;DHT22;9882;51.166;6.992;2023-03-04T08:04:06;4.50;99.90
19483;DHT22;9882;51.166;6.992;2023-03-04T08:06:39;4.50;99.90
19483;DHT22;9882;51.166;6.992;2023-03-04T08:09:10;4.50;99.90
19483;DHT22;9882;51.166;6.992;2023-03-04T08:11:40;4.50;99.90
19483;DHT22;9882;51.166;6.992;2023-03-04T08:14:12;4.60;99.90
19483;DHT22;9882;51.166;6.992;2023-03-04T08:16:41;4.60;99.90
19483;DHT22;9882;51.166;6.992;2023-03-04T08:19:11;4.60;99.90
19483;DHT22;9882;51.166;6.992;2023-03-04T08:21:41;4.70;99.90
19483;DHT22;9882;51.166;6.992;2023-03-04T08:24:12;4.60;99.90
19483;DHT22;9882;51.166;6.992;2023-03-04T08:26:43;4.70;99.90
19483;DHT22;9882;51.166;6.992;2023-03-04T08:29:14;4.80;99.90
19483;DHT22;9882;51.166;6.992;2023-03-04T08:31:43;4.80;99.90
19483;DHT22;9882;51.166;6.992;2023-03-04T08:34:16;4.80;99.90
19483;DHT22;9882;51.166;6.992;2023-03-04T08:36:47;4.70;99.90
19483;DHT22;9882;51.166;6.992;2023-03-04T08:39:17;4.80;99.90
19483;DHT22;9882;51.166;6.992;2023-03-04T08:41:47;4.80;99.90
19483;DHT22;9882;51.166;6.992;2023-03-04T08:44:16;4.80;99.90
19483;DHT22;9882;51.166;6.992;2023-03-04T08:46:45;4.80;99.90
19483;DHT22;9882;51.166;6.992;2023-03-04T08:49:14;4.80;99.90
19483;DHT22;9882;51.166;6.992;2023-03-04T08:51:43;4.90;99.90
19483;DHT22;9882;51.166;6.992;2023-03-04T08:54:13;4.80;99.90
19483;DHT22;9882;51.166;6.992;2023-03-04T08:56:42;4.90;99.90
19483;DHT22;9882;51.166;6.992;2023-03-04T08:59:11;4.90;99.90
19483;DHT22;9882;51.166;6.992;2023-03-04T09:01:40;4.90;99.90
19483;DHT22;9882;51.166;6.992;2023-03-04T09:04:09;5.10;99.90
19483;DHT22;9882;51.166;6.992;2023-03-04T09:06:38;5.00;99.90
19483;DHT22;9882;51.166;6.992;2023-03-04T09:09:07;5.10;99.90
19483;DHT22;9882;51.166;6.992;2023-03-04T09:11:37;5.10;99.90
19483;DHT22;9882;51.166;6.992;2023-03-04T09:14:06;5.10;99.90
19483;DHT22;9882;51.166;6.992;2023-03-04T09:16:34;5.20;99.90
19483;DHT22;9882;51.166;6.992;2023-03-04T09:19:03;5.20;99.90
19483;DHT22;9882;51.166;6.992;2023-03-04T09:21:32;5.20;99.90
19483;DHT22;9882;51.166;6.992;2023-03-04T09:24:00;5.30;99.90
19483;DHT22;9882;51.166;6.992;2023-03-04T09:26:29;5.30;99.90
19483;DHT22;9882;51.166;6.992;2023-03-04T09:29:00;5.20;99.90
19483;DHT22;9882;51.166;6.992;2023-03-04T09:31:29;5.20;99.90
19483;DHT22;9882;51.166;6.992;2023-03-04T09:33:59;5.20;99.90
19483;DHT22;9882;51.166;6.992;2023-03-04T09:36:33;5.10;99.90
19483;DHT22;9882;51.166;6.992;2023-03-04T09:39:03;5.00;99.90
19483;DHT22;9882;51.166;6.992;2023-03-04T09:41:36;5.10;99.90
19483;DHT22;9882;51.166;6.992;2023-03-04T09:44:14;5.10;99.90
19483;DHT22;9882;51.166;6.992;2023-03-04T09:46:45;5.10;99.90
19483;DHT22;9882;51.166;6.992;2023-03-04T09:49:15;5.00;99.90
19483;DHT22;9882;51.166;6.992;2023-03-04T09:51:58;5.00;99.90
19483;DHT22;9882;51.166;6.992;2023-03-04T09:57:24;4.90;99.90
19483;DHT22;9882;51.166;6.992;2023-03-04T10:00:04;4.80;99.90
19483;DHT22;9882;51.166;6.992;2023-03-04T10:05:30;4.80;99.90
19483;DHT22;9882;51.166;6.992;2023-03-04T10:08:09;4.80;99.90
19483;DHT22;9882;51.166;6.992;2023-03-04T10:10:40;4.90;99.90
19483;DHT22;9882;51.166;6.992;2023-03-04T10:13:15;4.80;99.90
19483;DHT22;9882;51.166;6.992;2023-03-04T10:15:48;4.70;99.90
19483;DHT22;9882;51.166;6.992;2023-03-04T10:18:21;4.80;99.90
19483;DHT22;9882;51.166;6.992;2023-03-04T10:20:54;4.90;99.90
19483;DHT22;9882;51.166;6.992;2023-03-04T10:23:26;4.90;99.90
19483;DHT22;9882;51.166;6.992;2023-03-04T10:25:55;4.90;99.90
19483;DHT22;9882;51.166;6.992;2023-03-04T10:28:28;5.10;99.90
19483;DHT22;9882;51.166;6.992;2023-03-04T10:31:02;5.00;99.90
19483;DHT22;9882;51.166;6.992;2023-03-04T10:33:33;5.20;99.90
19483;DHT22;9882;51.166;6.992;2023-03-04T10:36:05;5.20;99.90
19483;DHT22;9882;51.166;6.992;2023-03-04T10:38:39;5.40;99.90
19483;DHT22;9882;51.166;6.992;2023-03-04T10:41:13;5.40;99.90
19483;DHT22;9882;51.166;6.992;2023-03-04T10:43:43;5.40;99.90
19483;DHT22;9882;51.166;6.992;2023-03-04T10:46:20;5.40;99.90
19483;DHT22;9882;51.166;6.992;2023-03-04T10:48:52;5.50;99.90
19483;DHT22;9882;51.166;6.992;2023-03-04T10:51:22;5.50;99.90
19483;DHT22;9882;51.166;6.992;2023-03-04T10:53:56;5.70;99.90
19483;DHT22;9882;51.166;6.992;2023-03-04T10:56:34;5.80;99.90
19483;DHT22;9882;51.166;6.992;2023-03-04T10:59:38;5.70;99.90
19483;DHT22;9882;51.166;6.992;2023-03-04T11:02:18;5.80;99.90
19483;DHT22;9882;51.166;6.992;2023-03-04T11:04:50;5.80;99.90
19483;DHT22;9882;51.166;6.992;2023-03-04T11:07:21;5.90;99.90
19483;DHT22;9882;51.166;6.992;2023-03-04T11:09:52;6.00;99.90
19483;DHT22;9882;51.166;6.992;2023-03-04T11:12:32;6.00;99.90
19483;DHT22;9882;51.166;6.992;2023-03-04T11:15:02;6.10;99.90
19483;DHT22;9882;51.166;6.992;2023-03-04T11:17:42;6.10;99.90
19483;DHT22;9882;51.166;6.992;2023-03-04T11:20:15;6.10;99.90
19483;DHT22;9882;51.166;6.992;2023-03-04T11:22:45;6.30;99.90
19483;DHT22;9882;51.166;6.992;2023-03-04T11:25:23;6.30;99.90
19483;DHT22;9882;51.166;6.992;2023-03-04T11:27:55;6.30;99.90
19483;DHT22;9882;51.166;6.992;2023-03-04T11:30:31;6.20;99.90
19483;DHT22;9882;51.166;6.992;2023-03-04T11:33:11;6.30;99.90
19483;DHT22;9882;51.166;6.992;2023-03-04T11:35:53;6.30;99.90
19483;DHT22;9882;51.166;6.992;2023-03-04T11:38:29;6.20;99.90
19483;DHT22;9882;51.166;6.992;2023-03-04T11:41:05;6.30;99.90
19483;DHT22;9882;51.166;6.992;2023-03-04T11:43:38;6.10;99.90
19483;DHT22;9882;51.166;6.992;2023-03-04T11:46:28;6.20;99.90
19483;DHT22;9882;51.166;6.992;2023-03-04T11:52:07;6.20;99.90
19483;DHT22;9882;51.166;6.992;2023-03-04T11:54:44;6.30;99.90
19483;DHT22;9882;51.166;6.992;2023-03-04T11:57:23;6.30;99.90
19483;DHT22;9882;51.166;6.992;2023-03-04T12:00:29;6.30;99.90
19483;DHT22;9882;51.166;6.992;2023-03-04T12:03:23;6.30;99.90
19483;DHT22;9882;51.166;6.992;2023-03-04T12:05:59;6.30;99.90
19483;DHT22;9882;51.166;6.992;2023-03-04T12:08:43;6.30;99.90
19483;DHT22;9882;51.166;6.992;2023-03-04T12:11:25;6.50;99.90
19483;DHT22;9882;51.166;6.992;2023-03-04T12:14:11;6.60;99.90
19483;DHT22;9882;51.166;6.992;2023-03-04T12:22:44;6.80;99.90
19483;DHT22;9882;51.166;6.992;2023-03-04T12:25:41;6.80;99.90
19483;DHT22;9882;51.166;6.992;2023-03-04T12:28:41;6.70;99.90
19483;DHT22;9882;51.166;6.992;2023-03-04T12:31:34;6.80;99.90
19483;DHT22;9882;51.166;6.992;2023-03-04T12:34:26;6.70;99.90
19483;DHT22;9882;51.166;6.992;2023-03-04T12:37:08;6.70;99.90
19483;DHT22;9882;51.166;6.992;2023-03-04T12:39:50;6.70;99.90
19483;DHT22;9882;51.166;6.992;2023-03-04T12:42:27;6.80;99.90
19483;DHT22;9882;51.166;6.992;2023-03-04T12:45:12;6.70;99.90
19483;DHT22;9882;51.166;6.992;2023-03-04T12:47:51;6.80;99.90
19483;DHT22;9882;51.166;6.992;2023-03-04T12:50:31;6.70;99.90
19483;DHT22;9882;51.166;6.992;2023-03-04T12:53:11;6.70;99.90
19483;DHT22;9882;51.166;6.992;2023-03-04T12:55:44;6.80;99.90
19483;DHT22;9882;51.166;6.992;2023-03-04T12:58:16;6.70;99.90
19483;DHT22;9882;51.166;6.992;2023-03-04T13:00:52;6.80;99.90
19483;DHT22;9882;51.166;6.992;2023-03-04T13:03:30;6.80;99.90
19483;DHT22;9882;51.166;6.992;2023-03-04T13:06:15;6.80;99.90
19483;DHT22;9882;51.166;6.992;2023-03-04T13:08:58;6.80;99.90
19483;DHT22;9882;51.166;6.992;2023-03-04T13:11:52;6.90;99.90
19483;DHT22;9882;51.166;6.992;2023-03-04T13:14:29;6.80;99.90
19483;DHT22;9882;51.166;6.992;2023-03-04T13:17:00;6.90;99.90
19483;DHT22;9882;51.166;6.992;2023-03-04T13:19:44;6.90;99.90
19483;DHT22;9882;51.166;6.992;2023-03-04T13:22:41;6.80;99.90
19483;DHT22;9882;51.166;6.992;2023-03-04T13:25:45;6.80;99.90
19483;DHT22;9882;51.166;6.992;2023-03-04T13:28:20;6.80;99.90
19483;DHT22;9882;51.166;6.992;2023-03-04T13:31:20;6.80;99.90
19483;DHT22;9882;51.166;6.992;2023-03-04T13:33:59;6.80;99.90
19483;DHT22;9882;51.166;6.992;2023-03-04T13:36:53;6.80;99.90
19483;DHT22;9882;51.166;6.992;2023-03-04T13:39:30;6.70;99.90
19483;DHT22;9882;51.166;6.992;2023-03-04T13:42:00;6.70;99.90
19483;DHT22;9882;51.166;6.992;2023-03-04T13:44:55;6.60;99.90
19483;DHT22;9882;51.166;6.992;2023-03-04T13:47:48;6.60;99.90
19483;DHT22;9882;51.166;6.992;2023-03-04T13:50:39;6.50;99.90
19483;DHT22;9882;51.166;6.992;2023-03-04T13:53:39;6.50;99.90
19483;DHT22;9882;51.166;6.992;2023-03-04T13:56:24;6.50;99.90
19483;DHT22;9882;51.166;6.992;2023-03-04T13:59:26;6.50;99.90
19483;DHT22;9882;51.166;6.992;2023-03-04T14:02:02;6.40;99.90
19483;DHT22;9882;51.166;6.992;2023-03-04T14:04:35;6.50;99.90
19483;DHT22;9882;51.166;6.992;2023-03-04T14:07:18;6.50;99.90
19483;DHT22;9882;51.166;6.992;2023-03-04T14:09:56;6.40;99.90
19483;DHT22;9882;51.166;6.992;2023-03-04T14:12:26;6.50;99.90
19483;DHT22;9882;51.166;6.992;2023-03-04T14:14:58;6.50;99.90
19483;DHT22;9882;51.166;6.992;2023-03-04T14:17:33;6.60;99.90
19483;DHT22;9882;51.166;6.992;2023-03-04T14:20:04;6.70;99.90
19483;DHT22;9882;51.166;6.992;2023-03-04T14:22:38;6.80;99.90
19483;DHT22;9882;51.166;6.992;2023-03-04T14:25:21;6.80;99.90
19483;DHT22;9882;51.166;6.992;2023-03-04T14:28:01;6.80;99.90
19483;DHT22;9882;51.166;6.992;2023-03-04T14:30:31;6.80;99.90
19483;DHT22;9882;51.166;6.992;2023-03-04T14:33:17;6.80;99.90
19483;DHT22;9882;51.166;6.992;2023-03-04T14:35:48;6.90;99.90
19483;DHT22;9882;51.166;6.992;2023-03-04T14:38:22;6.90;99.90
19483;DHT22;9882;51.166;6.992;2023-03-04T14:40:55;6.80;99.90
19483;DHT22;9882;51.166;6.992;2023-03-04T14:43:35;6.90;99.90
19483;DHT22;9882;51.166;6.992;2023-03-04T14:46:10;6.90;99.90
19483;DHT22;9882;51.166;6.992;2023-03-04T14:48:46;6.80;99.90
19483;DHT22;9882;51.166;6.992;2023-03-04T14:51:29;6.80;99.90
19483;DHT22;9882;51.166;6.992;2023-03-04T14:53:59;6.80;99.90
19483;DHT22;9882;51.166;6.992;2023-03-04T14:56:29;6.90;99.90
19483;DHT22;9882;51.166;6.992;2023-03-04T14:59:01;6.80;99.90
19483;DHT22;9882;51.166;6.992;2023-03-04T15:01:32;6.80;99.90
19483;DHT22;9882;51.166;6.992;2023-03-04T15:04:04;6.80;99.90
19483;DHT22;9882;51.166;6.992;2023-03-04T15:06:35;6.80;99.90
19483;DHT22;9882;51.166;6.992;2023-03-04T15:09:05;6.80;99.90
19483;DHT22;9882;51.166;6.992;2023-03-04T15:11:45;6.80;99.90
19483;DHT22;9882;51.166;6.992;2023-03-04T15:14:44;6.80;99.90
19483;DHT22;9882;51.166;6.992;2023-03-04T15:17:33;6.90;99.90
19483;DHT22;9882;51.166;6.992;2023-03-04T15:20:24;6.90;99.90
19483;DHT22;9882;51.166;6.992;2023-03-04T15:22:59;7.00;99.90
19483;DHT22;9882;51.166;6.992;2023-03-04T15:25:28;6.90;99.90
19483;DHT22;9882;51.166;6.992;2023-03-04T15:27:57;7.00;99.90
19483;DHT22;9882;51.166;6.992;2023-03-04T15:30:30;6.90;99.90
19483;DHT22;9882;51.166;6.992;2023-03-04T15:32:59;6.90;99.90
19483;DHT22;9882;51.166;6.992;2023-03-04T15:35:30;6.80;99.90
19483;DHT22;9882;51.166;6.992;2023-03-04T15:38:00;6.80;99.90
19483;DHT22;9882;51.166;6.992;2023-03-04T15:40:31;6.70;99.90
19483;DHT22;9882;51.166;6.992;2023-03-04T15:43:02;6.80;99.90
19483;DHT22;9882;51.166;6.992;2023-03-04T15:45:33;6.80;99.90
19483;DHT22;9882;51.166;6.992;2023-03-04T15:48:04;6.80;99.90
19483;DHT22;9882;51.166;6.992;2023-03-04T15:50:37;6.70;99.90
19483;DHT22;9882;51.166;6.992;2023-03-04T15:53:11;6.80;99.90
19483;DHT22;9882;51.166;6.992;2023-03-04T15:55:44;6.80;99.90
19483;DHT22;9882;51.166;6.992;2023-03-04T15:58:13;6.80;99.90
19483;DHT22;9882;51.166;6.992;2023-03-04T16:00:43;6.80;99.90
19483;DHT22;9882;51.166;6.992;2023-03-04T16:03:18;6.80;99.90
19483;DHT22;9882;51.166;6.992;2023-03-04T16:05:50;6.80;99.90
19483;DHT22;9882;51.166;6.992;2023-03-04T16:08:20;6.90;99.90
19483;DHT22;9882;51.166;6.992;2023-03-04T16:10:52;6.90;99.90
19483;DHT22;9882;51.166;6.992;2023-03-04T16:13:23;6.80;99.90
19483;DHT22;9882;51.166;6.992;2023-03-04T16:15:53;6.80;99.90
19483;DHT22;9882;51.166;6.992;2023-03-04T16:18:22;6.80;99.90
19483;DHT22;9882;51.166;6.992;2023-03-04T16:20:52;6.70;99.90
19483;DHT22;9882;51.166;6.992;2023-03-04T16:23:22;6.60;99.90
19483;DHT22;9882;51.166;6.992;2023-03-04T16:25:54;6.60;99.90
19483;DHT22;9882;51.166;6.992;2023-03-04T16:28:23;6.70;99.90
19483;DHT22;9882;51.166;6.992;2023-03-04T16:30:52;6.60;99.90
19483;DHT22;9882;51.166;6.992;2023-03-04T16:33:21;6.50;99.90
19483;DHT22;9882;51.166;6.992;2023-03-04T16:35:51;6.40;99.90
19483;DHT22;9882;51.166;6.992;2023-03-04T16:38:23;6.30;99.90
19483;DHT22;9882;51.166;6.992;2023-03-04T16:40:54;6.30;99.90
19483;DHT22;9882;51.166;6.992;2023-03-04T16:43:24;6.50;99.90
19483;DHT22;9882;51.166;6.992;2023-03-04T16:45:53;6.50;99.90
19483;DHT22;9882;51.166;6.992;2023-03-04T16:48:23;6.50;99.90
19483;DHT22;9882;51.166;6.992;2023-03-04T16:50:54;6.60;99.90
19483;DHT22;9882;51.166;6.992;2023-03-04T16:53:30;6.40;99.90